Time,TemperatureF,DewpointF,PressureIn,WindDirection,WindDirectionDegrees,WindSpeedMPH,WindSpeedGustMPH,Humidity,HourlyPrecipIn,Conditions,Clouds,dailyrainin,SoftwareType,DateUTC
2013-02-09 00:00:00,30.2,28.7,29.58,North,0,3.5,3.5,94,0.00,CLR,,1.31,WeatherDisplay:10.37,2013-02-09 05:00:00,
2013-02-09 00:05:00,30.0,28.5,29.59,NW,315,9.2,9.2,94,0.00,RA,,0.00,WeatherDisplay:10.37,2013-02-09 05:05:00,
2013-02-09 00:10:00,29.8,28.3,29.59,North,0,4.6,4.6,94,0.00,CLR,,0.00,WeatherDisplay:10.37,2013-02-09 05:10:00,
2013-02-09 00:15:00,29.8,28.3,29.59,North,0,3.8,3.8,94,0.00,CLR,,0.00,WeatherDisplay:10.37,2013-02-09 05:15:00,
2013-02-09 00:20:00,29.8,28.3,29.60,North,0,2.3,0.0,94,0.00,CLR,,0.00,WeatherDisplay:10.37,2013-02-09 05:20:00,
2013-02-09 00:25:00,29.8,28.6,29.60,NW,315,4.6,4.6,95,0.00,CLR,,0.00,WeatherDisplay:10.37,2013-02-09 05:25:00,
2013-02-09 00:30:00,29.8,28.6,29.60,NW,315,6.9,6.9,95,0.00,CLR,,0.00,WeatherDisplay:10.37,2013-02-09 05:30:00,
2013-02-09 00:35:00,29.7,28.4,29.59,NE,45,5.8,5.8,95,0.00,CLR,,0.00,WeatherDisplay:10.37,2013-02-09 05:35:00,
2013-02-09 00:40:00,29.5,28.2,29.59,North,0,6.9,6.9,95,0.00,CLR,,0.00,WeatherDisplay:10.37,2013-02-09 05:40:00,
2013-02-09 00:45:00,29.5,28.2,29.59,NW,315,4.6,4.6,95,0.00,CLR,,0.00,WeatherDisplay:10.37,2013-02-09 05:45:00,
2013-02-09 00:50:00,29.3,28.0,29.59,NE,45,8.1,8.1,95,0.00,CLR,,0.00,WeatherDisplay:10.37,2013-02-09 05:50:00,
2013-02-09 00:55:00,28.9,27.7,29.59,North,0,5.8,5.8,95,0.00,CLR,,0.00,WeatherDisplay:10.37,2013-02-09 05:55:00,
2013-02-09 01:00:00,28.8,27.5,29.59,West,270,10.4,10.4,95,0.00,CLR,,0.00,WeatherDisplay:10.37,2013-02-09 06:00:00,
2013-02-09 01:05:00,28.6,27.3,29.60,West,270,6.9,6.9,95,0.00,CLR,,0.00,WeatherDisplay:10.37,2013-02-09 06:05:00,
2013-02-09 01:10:00,28.4,27.2,29.60,North,0,8.1,8.1,95,0.00,CLR,,0.00,WeatherDisplay:10.37,2013-02-09 06:10:00,
2013-02-09 01:15:00,28.4,27.2,29.60,NE,45,5.8,5.8,95,0.00,CLR,,0.00,WeatherDisplay:10.37,2013-02-09 06:15:00,
2013-02-09 01:20:00,28.4,27.2,29.60,NE,45,12.7,12.7,95,0.00,CLR,,0.00,WeatherDisplay:10.37,2013-02-09 06:20:00,
2013-02-09 01:25:00,28.4,27.2,29.60,NE,45,6.9,6.9,95,0.00,CLR,,0.00,WeatherDisplay:10.37,2013-02-09 06:25:00,
2013-02-09 01:30:00,28.2,27.0,29.61,North,0,11.5,11.5,95,0.00,CLR,,0.00,WeatherDisplay:10.37,2013-02-09 06:30:00,
2013-02-09 01:35:00,28.2,27.0,29.62,North,0,8.1,8.1,95,0.00,CLR,,0.00,WeatherDisplay:10.37,2013-02-09 06:35:00,
2013-02-09 01:40:00,28.2,27.0,29.61,North,0,10.4,10.4,95,0.00,CLR,,0.00,WeatherDisplay:10.37,2013-02-09 06:40:00,
2013-02-09 01:45:00,28.2,27.2,29.61,North,0,4.6,4.6,96,0.00,CLR,,0.00,WeatherDisplay:10.37,2013-02-09 06:45:00,
2013-02-09 01:50:00,28.2,27.2,29.62,North,0,3.5,3.5,96,0.00,CLR,,0.00,WeatherDisplay:10.37,2013-02-09 06:50:00,
2013-02-09 01:55:00,28.2,27.2,29.62,NE,45,12.7,12.7,96,0.00,CLR,,0.00,WeatherDisplay:10.37,2013-02-09 06:55:00,
2013-02-09 02:00:00,28.2,27.2,29.62,NE,45,6.9,6.9,96,0.00,CLR,,0.00,WeatherDisplay:10.37,2013-02-09 07:00:00,
2013-02-09 02:05:00,28.4,27.4,29.62,NE,45,4.6,4.6,96,0.00,CLR,,0.00,WeatherDisplay:10.37,2013-02-09 07:05:00,
2013-02-09 02:10:00,28.4,27.4,29.62,NE,45,8.1,8.1,96,0.00,CLR,,0.00,WeatherDisplay:10.37,2013-02-09 07:10:00,
2013-02-09 02:16:00,28.6,27.8,29.62,NW,315,5.8,5.8,97,0.00,CLR,,0.00,WeatherDisplay:10.37,2013-02-09 07:16:00,
2013-02-09 02:21:00,28.6,27.8,29.62,NW,315,4.6,4.6,97,0.00,CLR,,0.00,WeatherDisplay:10.37,2013-02-09 07:21:00,
2013-02-09 02:26:00,28.6,27.8,29.62,North,0,3.5,0.0,97,0.00,CLR,,0.00,WeatherDisplay:10.37,2013-02-09 07:26:00,
2013-02-09 02:31:00,28.6,27.8,29.63,NE,45,0.0,0.7,97,0.00,CLR,,0.00,WeatherDisplay:10.37,2013-02-09 07:31:00,
2013-02-09 02:36:00,28.6,27.8,29.63,North,0,3.5,0.0,97,0.00,CLR,,0.00,WeatherDisplay:10.37,2013-02-09 07:36:00,
2013-02-09 02:41:00,28.6,27.8,29.63,SE,135,1.1,0.0,97,0.00,CLR,,0.00,WeatherDisplay:10.37,2013-02-09 07:41:00,
2013-02-09 02:46:00,28.8,28.0,29.63,East,90,0.0,0.0,97,0.00,CLR,,0.00,WeatherDisplay:10.37,2013-02-09 07:46:00,
2013-02-09 02:51:00,28.8,28.0,29.64,NW,315,0.0,0.0,97,0.00,CLR,,0.00,WeatherDisplay:10.37,2013-02-09 07:51:00,
2013-02-09 02:56:00,28.8,28.0,29.64,NW,315,3.5,0.0,97,0.00,CLR,,0.00,WeatherDisplay:10.37,2013-02-09 07:56:00,
2013-02-09 03:01:00,28.8,28.0,29.64,North,0,1.1,0.0,97,0.00,CLR,,0.00,WeatherDisplay:10.37,2013-02-09 08:01:00,
2013-02-09 03:06:00,28.9,28.2,29.64,NW,315,3.5,3.5,97,0.00,CLR,,0.00,WeatherDisplay:10.37,2013-02-09 08:06:00,
2013-02-09 03:11:00,28.9,28.4,29.64,South,180,0.0,0.0,98,0.00,CLR,,0.00,WeatherDisplay:10.37,2013-02-09 08:11:00,
2013-02-09 03:16:00,29.1,28.6,29.64,NNW,338,2.3,0.0,98,0.00,CLR,,0.00,WeatherDisplay:10.37,2013-02-09 08:16:00,
2013-02-09 03:21:00,29.1,28.6,29.64,SE,135,1.1,0.0,98,0.00,CLR,,0.00,WeatherDisplay:10.37,2013-02-09 08:21:00,
2013-02-09 03:26:00,29.3,28.8,29.64,North,0,0.0,0.0,98,0.00,CLR,,0.00,WeatherDisplay:10.37,2013-02-09 08:26:00,
2013-02-09 03:31:00,29.3,28.8,29.65,NW,315,1.1,0.0,98,0.00,CLR,,0.00,WeatherDisplay:10.37,2013-02-09 08:31:00,
2013-02-09 03:36:00,29.3,28.8,29.65,NW,315,1.1,0.0,98,0.00,CLR,,0.00,WeatherDisplay:10.37,2013-02-09 08:36:00,
2013-02-09 03:41:00,29.5,29.0,29.65,NW,315,0.0,0.0,98,0.00,CLR,,0.00,WeatherDisplay:10.37,2013-02-09 08:41:00,
2013-02-09 03:46:00,29.5,29.0,29.65,NW,315,2.3,0.0,98,0.00,CLR,,0.00,WeatherDisplay:10.37,2013-02-09 08:46:00,
2013-02-09 03:51:00,29.5,29.0,29.65,North,0,2.3,0.0,98,0.00,CLR,,0.00,WeatherDisplay:10.37,2013-02-09 08:51:00,
2013-02-09 03:56:00,29.5,29.0,29.65,NW,315,2.3,0.0,98,0.00,CLR,,0.00,WeatherDisplay:10.37,2013-02-09 08:56:00,
2013-02-09 04:01:00,29.5,29.0,29.66,West,270,1.1,0.0,98,0.00,CLR,,0.00,WeatherDisplay:10.37,2013-02-09 09:01:00,
2013-02-09 04:06:00,29.5,29.0,29.66,NW,315,2.3,0.0,98,0.00,CLR,,0.00,WeatherDisplay:10.37,2013-02-09 09:06:00,
2013-02-09 04:11:00,29.5,29.0,29.66,NW,315,1.1,0.0,98,0.00,CLR,,0.00,WeatherDisplay:10.37,2013-02-09 09:11:00,
2013-02-09 04:16:00,29.7,29.2,29.66,North,0,2.3,2.3,98,0.00,CLR,,0.00,WeatherDisplay:10.37,2013-02-09 09:16:00,
2013-02-09 04:21:00,29.7,29.2,29.66,North,0,2.3,0.0,98,0.00,CLR,,0.00,WeatherDisplay:10.37,2013-02-09 09:21:00,
2013-02-09 04:26:00,29.8,29.6,29.66,NW,315,2.3,0.0,99,0.00,CLR,,0.00,WeatherDisplay:10.37,2013-02-09 09:26:00,
2013-02-09 04:31:00,29.8,29.6,29.67,NW,315,2.3,0.0,99,0.00,CLR,,0.00,WeatherDisplay:10.37,2013-02-09 09:31:00,
2013-02-09 04:36:00,30.0,29.8,29.67,NW,315,2.3,0.0,99,0.00,CLR,,0.00,WeatherDisplay:10.37,2013-02-09 09:36:00,
2013-02-09 04:41:00,30.0,29.8,29.67,WNW,292,1.1,0.0,99,0.00,CLR,,0.00,WeatherDisplay:10.37,2013-02-09 09:41:00,
2013-02-09 04:46:00,30.2,30.0,29.67,NW,315,2.3,2.3,99,0.00,CLR,,0.00,WeatherDisplay:10.37,2013-02-09 09:46:00,
2013-02-09 04:51:00,30.2,30.0,29.67,South,180,2.3,0.0,99,0.00,CLR,,0.00,WeatherDisplay:10.37,2013-02-09 09:51:00,
2013-02-09 04:56:00,30.4,30.1,29.67,West,270,3.5,0.0,99,0.00,CLR,,0.00,WeatherDisplay:10.37,2013-02-09 09:56:00,
2013-02-09 05:01:00,30.4,30.1,29.67,NW,315,1.1,0.0,99,0.00,CLR,,0.00,WeatherDisplay:10.37,2013-02-09 10:01:00,
2013-02-09 05:06:00,30.6,30.3,29.67,West,270,3.5,3.5,99,0.00,CLR,,0.00,WeatherDisplay:10.37,2013-02-09 10:06:00,
2013-02-09 05:11:00,30.6,30.3,29.68,East,90,2.3,2.3,99,0.00,CLR,,0.00,WeatherDisplay:10.37,2013-02-09 10:11:00,
2013-02-09 05:16:00,30.6,30.3,29.68,West,270,3.5,0.0,99,0.00,CLR,,0.00,WeatherDisplay:10.37,2013-02-09 10:16:00,
2013-02-09 05:21:00,30.6,30.3,29.69,SW,225,4.6,4.6,99,0.00,CLR,,0.00,WeatherDisplay:10.37,2013-02-09 10:21:00,
2013-02-09 05:26:00,30.2,30.0,29.69,SW,225,5.8,5.8,99,0.00,CLR,,0.00,WeatherDisplay:10.37,2013-02-09 10:26:00,
2013-02-09 05:31:00,29.7,29.4,29.69,West,270,3.5,3.5,99,0.00,CLR,,0.00,WeatherDisplay:10.37,2013-02-09 10:31:00,
2013-02-09 05:36:00,29.3,29.1,29.69,North,0,8.1,0.0,99,0.00,CLR,,0.00,WeatherDisplay:10.37,2013-02-09 10:36:00,
2013-02-09 05:41:00,28.9,28.7,29.69,SW,225,5.8,5.8,99,0.00,CLR,,0.00,WeatherDisplay:10.37,2013-02-09 10:41:00,
2013-02-09 05:46:00,28.4,28.2,29.70,NW,315,2.3,2.3,99,0.00,CLR,,0.00,WeatherDisplay:10.37,2013-02-09 10:46:00,
2013-02-09 05:51:00,28.2,28.0,29.70,South,180,8.1,8.1,99,0.00,CLR,,0.00,WeatherDisplay:10.37,2013-02-09 10:51:00,
2013-02-09 05:56:00,27.9,27.6,29.70,NW,315,5.8,5.8,99,0.00,CLR,,0.00,WeatherDisplay:10.37,2013-02-09 10:56:00,
2013-02-09 06:01:00,27.7,27.2,29.71,SW,225,3.5,3.5,98,0.00,CLR,,0.00,WeatherDisplay:10.37,2013-02-09 11:01:00,
2013-02-09 06:06:00,27.3,26.8,29.71,West,270,8.1,8.1,98,0.00,CLR,,0.00,WeatherDisplay:10.37,2013-02-09 11:06:00,
2013-02-09 06:11:00,27.1,26.9,29.72,SW,225,5.8,5.8,99,0.00,CLR,,0.00,WeatherDisplay:10.37,2013-02-09 11:11:00,
2013-02-09 06:16:00,27.0,26.5,29.72,North,0,4.6,4.6,98,0.00,CLR,,0.00,WeatherDisplay:10.37,2013-02-09 11:16:00,
2013-02-09 06:21:00,27.0,26.5,29.72,SSW,202,4.6,4.6,98,0.00,CLR,,0.00,WeatherDisplay:10.37,2013-02-09 11:21:00,
2013-02-09 06:26:00,26.8,26.3,29.73,NW,315,5.8,0.0,98,0.00,CLR,,0.00,WeatherDisplay:10.37,2013-02-09 11:26:00,
2013-02-09 06:31:00,26.8,26.3,29.73,SW,225,5.8,5.8,98,0.00,CLR,,0.00,WeatherDisplay:10.37,2013-02-09 11:31:00,
2013-02-09 06:36:00,26.6,26.1,29.73,SW,225,4.6,4.6,98,0.00,CLR,,0.00,WeatherDisplay:10.37,2013-02-09 11:36:00,
2013-02-09 06:41:00,26.4,25.9,29.74,NW,315,5.8,5.8,98,0.00,CLR,,0.00,WeatherDisplay:10.37,2013-02-09 11:41:00,
2013-02-09 06:46:00,26.4,25.9,29.74,North,0,5.8,0.0,98,0.00,CLR,,0.00,WeatherDisplay:10.37,2013-02-09 11:46:00,
2013-02-09 06:51:00,26.4,25.9,29.74,SW,225,6.9,6.9,98,0.00,CLR,,0.00,WeatherDisplay:10.37,2013-02-09 11:51:00,
2013-02-09 06:56:00,26.2,25.8,29.74,West,270,5.8,5.8,98,0.00,CLR,,0.00,WeatherDisplay:10.37,2013-02-09 11:56:00,
2013-02-09 07:01:00,26.2,25.8,29.75,SSW,202,6.9,6.9,98,0.00,CLR,,0.00,WeatherDisplay:10.37,2013-02-09 12:01:00,
2013-02-09 07:06:00,26.2,25.8,29.75,SW,225,4.6,4.6,98,0.00,CLR,,0.00,WeatherDisplay:10.37,2013-02-09 12:06:00,
2013-02-09 07:11:00,26.2,25.8,29.75,NW,315,5.8,5.8,98,0.00,CLR,,0.00,WeatherDisplay:10.37,2013-02-09 12:11:00,
2013-02-09 07:16:00,26.2,25.8,29.75,SW,225,8.1,8.1,98,0.00,CLR,,0.00,WeatherDisplay:10.37,2013-02-09 12:16:00,
2013-02-09 07:21:00,26.4,25.9,29.76,West,270,8.1,0.0,98,0.00,CLR,,0.00,WeatherDisplay:10.37,2013-02-09 12:21:00,
2013-02-09 07:26:00,26.2,25.8,29.76,SW,225,5.8,5.8,98,0.00,CLR,,0.00,WeatherDisplay:10.37,2013-02-09 12:26:00,
2013-02-09 07:32:00,26.4,25.9,29.77,SW,225,6.9,6.9,98,0.00,CLR,,0.00,WeatherDisplay:10.37,2013-02-09 12:32:00,
2013-02-09 07:37:00,26.4,25.9,29.77,SW,225,5.8,5.8,98,0.00,CLR,,0.00,WeatherDisplay:10.37,2013-02-09 12:37:00,
2013-02-09 07:42:00,26.6,26.1,29.77,South,180,5.8,5.8,98,0.00,CLR,,0.00,WeatherDisplay:10.37,2013-02-09 12:42:00,
2013-02-09 07:47:00,26.6,25.9,29.77,SW,225,3.5,3.5,97,0.00,CLR,,0.00,WeatherDisplay:10.37,2013-02-09 12:47:00,
2013-02-09 07:52:00,26.6,25.9,29.78,West,270,8.1,8.1,97,0.00,CLR,,0.00,WeatherDisplay:10.37,2013-02-09 12:52:00,
2013-02-09 07:57:00,26.6,25.6,29.77,SW,225,8.1,8.1,96,0.00,CLR,,0.00,WeatherDisplay:10.37,2013-02-09 12:57:00,
2013-02-09 08:02:00,26.6,25.4,29.78,West,270,5.8,5.8,95,0.00,CLR,,0.00,WeatherDisplay:10.37,2013-02-09 13:02:00,
2013-02-09 08:07:00,26.6,25.4,29.78,WNW,292,5.8,5.8,95,0.00,CLR,,0.00,WeatherDisplay:10.37,2013-02-09 13:07:00,
2013-02-09 08:12:00,26.8,25.3,29.78,West,270,5.8,5.8,94,0.00,CLR,,0.00,WeatherDisplay:10.37,2013-02-09 13:12:00,
2013-02-09 08:17:00,26.6,24.8,29.78,West,270,9.2,9.2,93,0.00,CLR,,0.00,WeatherDisplay:10.37,2013-02-09 13:17:00,
2013-02-09 08:22:00,26.6,24.6,29.78,West,270,8.1,8.1,92,0.00,CLR,,0.00,WeatherDisplay:10.37,2013-02-09 13:22:00,
2013-02-09 08:27:00,26.8,24.0,29.78,West,270,8.1,8.1,89,0.00,CLR,,0.00,WeatherDisplay:10.37,2013-02-09 13:27:00,
2013-02-09 08:32:00,26.8,22.9,29.78,NW,315,12.1,12.1,85,0.00,CLR,,0.00,WeatherDisplay:10.37,2013-02-09 13:32:00,
2013-02-09 08:37:00,26.8,22.0,29.78,West,270,8.1,8.1,82,0.00,CLR,,0.00,WeatherDisplay:10.37,2013-02-09 13:37:00,
2013-02-09 08:42:00,27.0,21.6,29.79,West,270,8.3,8.3,80,0.00,CLR,,0.00,WeatherDisplay:10.37,2013-02-09 13:42:00,
2013-02-09 08:47:00,27.0,21.0,29.78,West,270,6.9,6.9,78,0.00,CLR,,0.00,WeatherDisplay:10.37,2013-02-09 13:47:00,
2013-02-09 08:52:00,27.0,20.7,29.79,SSW,202,8.1,8.1,77,0.00,CLR,,0.00,WeatherDisplay:10.37,2013-02-09 13:52:00,
2013-02-09 08:57:00,27.1,20.3,29.79,North,0,6.9,6.9,75,0.00,CLR,,0.00,WeatherDisplay:10.37,2013-02-09 13:57:00,
2013-02-09 09:02:00,27.0,20.1,29.79,NW,315,9.2,9.2,75,0.00,CLR,,0.00,WeatherDisplay:10.37,2013-02-09 14:02:00,
2013-02-09 09:07:00,27.0,19.5,29.80,NW,315,5.8,5.8,73,0.00,CLR,,0.00,WeatherDisplay:10.37,2013-02-09 14:07:00,
2013-02-09 09:12:00,27.3,20.1,29.80,West,270,8.1,8.1,74,0.00,CLR,,0.00,WeatherDisplay:10.37,2013-02-09 14:12:00,
2013-02-09 09:17:00,27.3,19.5,29.80,NW,315,6.9,6.9,72,0.00,CLR,,0.00,WeatherDisplay:10.37,2013-02-09 14:17:00,
2013-02-09 09:22:00,27.7,19.8,29.81,NW,315,8.1,8.1,72,0.00,CLR,,0.00,WeatherDisplay:10.37,2013-02-09 14:22:00,
2013-02-09 09:27:00,28.0,20.2,29.81,NE,45,7.6,7.6,72,0.00,CLR,,0.00,WeatherDisplay:10.37,2013-02-09 14:27:00,
2013-02-09 09:32:00,28.0,19.5,29.81,NW,315,9.2,0.0,70,0.00,CLR,,0.00,WeatherDisplay:10.37,2013-02-09 14:32:00,
2013-02-09 09:37:00,28.6,20.4,29.81,West,270,4.5,4.5,71,0.00,CLR,,0.00,WeatherDisplay:10.37,2013-02-09 14:37:00,
2013-02-09 09:42:00,28.4,19.9,29.82,NW,315,10.4,10.4,70,0.00,CLR,,0.00,WeatherDisplay:10.37,2013-02-09 14:42:00,
2013-02-09 09:47:00,28.6,20.0,29.81,NE,45,6.9,6.9,70,0.00,CLR,,0.00,WeatherDisplay:10.37,2013-02-09 14:47:00,
2013-02-09 09:52:00,28.8,20.5,29.82,North,0,5.8,0.0,71,0.00,CLR,,0.00,WeatherDisplay:10.37,2013-02-09 14:52:00,
2013-02-09 09:57:00,28.8,18.8,29.83,NW,315,4.6,4.6,66,0.00,CLR,,0.00,WeatherDisplay:10.37,2013-02-09 14:57:00,
2013-02-09 10:02:00,28.8,17.7,29.83,SE,135,10.4,10.4,63,0.00,CLR,,0.00,WeatherDisplay:10.37,2013-02-09 15:02:00,
2013-02-09 10:07:00,29.1,17.7,29.83,North,0,10.4,10.4,62,0.00,CLR,,0.00,WeatherDisplay:10.37,2013-02-09 15:07:00,
2013-02-09 10:12:00,29.8,18.4,29.83,SW,225,9.2,9.2,62,0.00,CLR,,0.00,WeatherDisplay:10.37,2013-02-09 15:12:00,
2013-02-09 10:17:00,31.3,19.4,29.83,North,0,12.7,0.0,61,0.00,CLR,,0.00,WeatherDisplay:10.37,2013-02-09 15:17:00,
2013-02-09 10:22:00,32.4,20.0,29.85,North,0,0.0,0.0,60,0.00,CLR,,0.00,WeatherDisplay:10.37,2013-02-09 15:22:00,
2013-02-09 10:27:00,32.4,16.7,29.84,North,0,0.0,0.0,52,0.00,CLR,,0.00,WeatherDisplay:10.37,2013-02-09 15:27:00,
2013-02-09 10:32:00,33.1,17.8,29.85,West,270,0.0,0.0,53,0.00,CLR,,0.00,WeatherDisplay:10.37,2013-02-09 15:32:00,
2013-02-09 10:37:00,33.4,16.8,29.85,North,0,0.0,0.0,50,0.00,CLR,,0.00,WeatherDisplay:10.37,2013-02-09 15:37:00,
2013-02-09 10:42:00,34.0,15.3,29.85,West,270,0.0,0.0,46,0.00,CLR,,0.00,WeatherDisplay:10.37,2013-02-09 15:42:00,
2013-02-09 10:47:00,34.3,14.7,29.85,NW,315,0.0,0.0,44,0.00,CLR,,0.00,WeatherDisplay:10.37,2013-02-09 15:47:00,
2013-02-09 10:52:00,33.6,14.0,29.85,North,0,0.0,0.0,44,0.00,CLR,,0.00,WeatherDisplay:10.37,2013-02-09 15:52:00,
2013-02-09 10:57:00,32.4,11.8,29.86,West,270,0.0,0.0,42,0.00,CLR,,0.00,WeatherDisplay:10.37,2013-02-09 15:57:00,
2013-02-09 11:02:00,31.6,12.2,29.86,South,180,0.0,0.0,44,0.00,CLR,,0.00,WeatherDisplay:10.37,2013-02-09 16:02:00,
2013-02-09 11:07:00,31.5,12.0,29.87,North,0,0.0,0.0,44,0.00,CLR,,0.00,WeatherDisplay:10.37,2013-02-09 16:07:00,
2013-02-09 11:12:00,31.8,13.4,29.86,NW,315,0.0,0.0,46,0.00,CLR,,0.00,WeatherDisplay:10.37,2013-02-09 16:12:00,
2013-02-09 11:17:00,32.0,12.5,29.86,SSE,158,0.0,0.0,44,0.00,CLR,,0.00,WeatherDisplay:10.37,2013-02-09 16:17:00,
2013-02-09 11:22:00,32.4,13.9,29.86,NW,315,0.0,0.0,46,0.00,CLR,,0.00,WeatherDisplay:10.37,2013-02-09 16:22:00,
2013-02-09 11:27:00,32.2,12.7,29.86,West,270,0.0,0.0,44,0.00,CLR,,0.00,WeatherDisplay:10.37,2013-02-09 16:27:00,
2013-02-09 11:32:00,32.4,12.3,29.86,NW,315,0.0,0.0,43,0.00,CLR,,0.00,WeatherDisplay:10.37,2013-02-09 16:32:00,
2013-02-09 11:37:00,34.2,13.4,29.86,North,0,0.0,0.0,42,0.00,CLR,,0.00,WeatherDisplay:10.37,2013-02-09 16:37:00,
2013-02-09 11:42:00,35.8,13.8,29.87,NW,315,0.0,0.0,40,0.00,CLR,,0.00,WeatherDisplay:10.37,2013-02-09 16:42:00,
2013-02-09 11:47:00,36.0,10.9,29.87,NW,315,0.0,0.0,35,0.00,CLR,,0.00,WeatherDisplay:10.37,2013-02-09 16:47:00,
2013-02-09 11:52:00,36.5,9.4,29.87,South,180,10.4,10.4,32,0.00,CLR,,0.00,WeatherDisplay:10.37,2013-02-09 16:52:00,
2013-02-09 11:57:00,36.0,6.7,29.87,North,0,16.1,16.1,29,0.00,CLR,,0.00,WeatherDisplay:10.37,2013-02-09 16:57:00,
2013-02-09 12:02:00,35.8,6.6,29.86,NW,315,11.4,11.4,29,0.00,CLR,,0.00,WeatherDisplay:10.37,2013-02-09 17:02:00,
2013-02-09 12:07:00,35.8,6.6,29.87,NW,315,10.4,10.4,29,0.00,CLR,,0.00,WeatherDisplay:10.37,2013-02-09 17:07:00,
2013-02-09 12:12:00,36.0,4.3,29.87,South,180,13.8,13.8,26,0.00,CLR,,0.00,WeatherDisplay:10.37,2013-02-09 17:12:00,
2013-02-09 12:17:00,35.8,4.2,29.87,WNW,292,15.0,15.0,26,0.00,CLR,,0.00,WeatherDisplay:10.37,2013-02-09 17:17:00,
2013-02-09 12:22:00,36.3,3.8,29.87,NW,315,15.0,15.0,25,0.00,CLR,,0.00,WeatherDisplay:10.37,2013-02-09 17:22:00,
2013-02-09 12:27:00,36.3,3.8,29.88,West,270,12.7,12.7,25,0.00,CLR,,0.00,WeatherDisplay:10.37,2013-02-09 17:27:00,
2013-02-09 12:32:00,36.0,1.7,29.87,West,270,17.3,17.3,23,0.00,CLR,,0.00,WeatherDisplay:10.37,2013-02-09 17:32:00,
2013-02-09 12:38:00,36.7,3.2,29.87,NW,315,10.4,10.4,24,0.00,CLR,,0.00,WeatherDisplay:10.37,2013-02-09 17:38:00,
2013-02-09 12:43:00,37.6,4.9,29.87,North,0,10.4,10.4,25,0.00,CLR,,0.00,WeatherDisplay:10.37,2013-02-09 17:43:00,
2013-02-09 12:48:00,37.2,1.8,29.87,NW,315,12.7,12.7,22,0.00,CLR,,0.00,WeatherDisplay:10.37,2013-02-09 17:48:00,
2013-02-09 12:53:00,37.9,1.4,29.88,SE,135,9.2,9.2,21,0.00,CLR,,0.00,WeatherDisplay:10.37,2013-02-09 17:53:00,
2013-02-09 12:58:00,37.9,-0.7,29.88,West,270,10.4,10.4,19,0.00,CLR,,0.00,WeatherDisplay:10.37,2013-02-09 17:58:00,
2013-02-09 13:03:00,37.4,-3.5,29.88,NE,45,18.4,18.4,17,0.00,CLR,,0.00,WeatherDisplay:10.37,2013-02-09 18:03:00,
2013-02-09 13:08:00,37.2,-3.7,29.88,NW,315,8.1,8.1,17,0.00,CLR,,0.00,WeatherDisplay:10.37,2013-02-09 18:08:00,
2013-02-09 13:13:00,37.9,-0.7,29.88,West,270,9.2,9.2,19,0.00,CLR,,0.00,WeatherDisplay:10.37,2013-02-09 18:13:00,
2013-02-09 13:18:00,37.4,-3.5,29.89,NW,315,12.7,12.7,17,0.00,CLR,,0.00,WeatherDisplay:10.37,2013-02-09 18:18:00,
2013-02-09 13:23:00,37.4,-3.5,29.88,NW,315,10.4,10.4,17,0.00,CLR,,0.00,WeatherDisplay:10.37,2013-02-09 18:23:00,
2013-02-09 13:28:00,37.8,-4.5,29.88,NE,45,17.3,17.3,16,0.00,CLR,,0.00,WeatherDisplay:10.37,2013-02-09 18:28:00,
2013-02-09 13:33:00,37.8,-8.8,29.89,North,0,9.2,9.2,13,0.00,CLR,,0.00,WeatherDisplay:10.37,2013-02-09 18:33:00,
2013-02-09 13:38:00,38.1,-5.6,29.89,West,270,11.5,11.5,15,0.00,CLR,,0.00,WeatherDisplay:10.37,2013-02-09 18:38:00,
2013-02-09 13:43:00,37.9,-8.6,29.89,NW,315,10.4,10.4,13,0.00,CLR,,0.00,WeatherDisplay:10.37,2013-02-09 18:43:00,
2013-02-09 13:48:00,37.9,-12.0,29.89,NW,315,17.3,17.3,11,0.00,CLR,,0.00,WeatherDisplay:10.37,2013-02-09 18:48:00,
2013-02-09 13:53:00,38.3,-6.8,29.90,South,180,15.0,15.0,14,0.00,CLR,,0.00,WeatherDisplay:10.37,2013-02-09 18:53:00,
2013-02-09 13:58:00,39.4,-7.5,29.90,SW,225,6.9,6.9,13,0.00,CLR,,0.00,WeatherDisplay:10.37,2013-02-09 18:58:00,
2013-02-09 14:03:00,39.0,-7.8,29.90,NW,315,18.4,18.4,13,0.00,CLR,,0.00,WeatherDisplay:10.37,2013-02-09 19:03:00,
2013-02-09 14:08:00,38.7,-13.4,29.90,SW,225,13.8,13.8,10,0.00,CLR,,0.00,WeatherDisplay:10.37,2013-02-09 19:08:00,
2013-02-09 14:13:00,38.1,-11.9,29.90,West,270,17.3,17.3,11,0.00,CLR,,0.00,WeatherDisplay:10.37,2013-02-09 19:13:00,
2013-02-09 14:18:00,38.7,-13.4,29.90,West,270,12.7,12.7,10,0.00,CLR,,0.00,WeatherDisplay:10.37,2013-02-09 19:18:00,
2013-02-09 14:23:00,38.5,-13.5,29.90,North,0,17.3,17.3,10,0.00,CLR,,0.00,WeatherDisplay:10.37,2013-02-09 19:23:00,
2013-02-09 14:28:00,38.7,-13.4,29.90,North,0,10.4,10.4,10,0.00,CLR,,0.00,WeatherDisplay:10.37,2013-02-09 19:28:00,
2013-02-09 14:33:00,38.8,-11.3,29.91,North,0,12.7,12.7,11,0.00,CLR,,0.00,WeatherDisplay:10.37,2013-02-09 19:33:00,
2013-02-09 14:38:00,38.5,-11.6,29.91,West,270,20.7,20.7,11,0.01,RA,,0.01,WeatherDisplay:10.37,2013-02-09 19:38:00,
2013-02-09 14:43:00,38.3,-13.7,29.91,SW,225,13.8,13.8,10,0.02,RA,,0.02,WeatherDisplay:10.37,2013-02-09 19:43:00,
2013-02-09 14:48:00,38.7,-13.4,29.91,South,180,12.7,12.7,10,0.02,RA,,0.02,WeatherDisplay:10.37,2013-02-09 19:48:00,
2013-02-09 14:53:00,38.3,-13.7,29.91,WSW,248,9.2,9.2,10,0.02,,,0.02,WeatherDisplay:10.37,2013-02-09 19:53:00,
2013-02-09 14:58:00,37.9,-13.9,29.91,West,270,15.0,15.0,10,0.04,RA,,0.04,WeatherDisplay:10.37,2013-02-09 19:58:00,
2013-02-09 15:03:00,38.3,-13.7,29.91,WNW,292,10.4,10.4,10,0.04,RA,,0.04,WeatherDisplay:10.37,2013-02-09 20:03:00,
2013-02-09 15:08:00,38.3,-13.7,29.91,NE,45,11.5,11.5,10,0.05,RA,,0.05,WeatherDisplay:10.37,2013-02-09 20:08:00,
2013-02-09 15:13:00,38.7,-13.4,29.91,NNW,338,16.1,16.1,10,0.05,RA,,0.05,WeatherDisplay:10.37,2013-02-09 20:13:00,
2013-02-09 15:18:00,38.1,-13.8,29.92,West,270,12.7,12.7,10,0.06,RA,,0.06,WeatherDisplay:10.37,2013-02-09 20:18:00,
2013-02-09 15:23:00,38.1,-13.8,29.92,NW,315,8.1,8.1,10,0.07,RA,,0.07,WeatherDisplay:10.37,2013-02-09 20:23:00,
2013-02-09 15:28:00,38.1,-13.8,29.92,NW,315,12.7,12.7,10,0.07,RA,,0.07,WeatherDisplay:10.37,2013-02-09 20:28:00,
2013-02-09 15:33:00,38.5,-13.5,29.93,West,270,12.7,12.7,10,0.07,CLR,,0.07,WeatherDisplay:10.37,2013-02-09 20:33:00,
2013-02-09 15:38:00,38.3,-13.7,29.93,West,270,10.4,10.4,10,0.07,RA,,0.08,WeatherDisplay:10.37,2013-02-09 20:38:00,
2013-02-09 15:43:00,38.8,-13.2,29.93,East,90,8.1,8.1,10,0.06,RA,,0.08,WeatherDisplay:10.37,2013-02-09 20:43:00,
2013-02-09 15:48:00,38.8,-13.2,29.93,East,90,10.4,10.4,10,0.06,CLR,,0.08,WeatherDisplay:10.37,2013-02-09 20:48:00,
2013-02-09 15:53:00,38.7,-13.4,29.93,NW,315,13.8,13.8,10,0.06,CLR,,0.08,WeatherDisplay:10.37,2013-02-09 20:53:00,
2013-02-09 15:58:00,38.1,-13.8,29.94,NW,315,8.1,8.1,10,0.06,RA,,0.09,WeatherDisplay:10.37,2013-02-09 20:58:00,
2013-02-09 16:03:00,38.1,-13.8,29.95,West,270,12.7,12.7,10,0.06,RA,,0.09,WeatherDisplay:10.37,2013-02-09 21:03:00,
2013-02-09 16:08:00,37.4,-14.4,29.95,West,270,10.4,10.4,10,0.05,CLR,,0.09,WeatherDisplay:10.37,2013-02-09 21:08:00,
2013-02-09 16:13:00,37.4,-14.4,29.95,SW,225,15.0,15.0,10,0.05,CLR,,0.09,WeatherDisplay:10.37,2013-02-09 21:13:00,
2013-02-09 16:18:00,37.4,-14.4,29.96,North,0,10.4,10.4,10,0.04,CLR,,0.09,WeatherDisplay:10.37,2013-02-09 21:18:00,
2013-02-09 16:23:00,37.2,-14.5,29.96,North,0,10.4,10.4,10,0.02,CLR,,0.09,WeatherDisplay:10.37,2013-02-09 21:23:00,
2013-02-09 16:28:00,36.9,-14.8,29.96,NW,315,10.4,10.4,10,0.02,CLR,,0.09,WeatherDisplay:10.37,2013-02-09 21:28:00,
2013-02-09 16:33:00,36.1,-15.3,29.97,NW,315,12.7,12.7,10,0.02,CLR,,0.09,WeatherDisplay:10.37,2013-02-09 21:33:00,
2013-02-09 16:38:00,35.6,-15.8,29.97,North,0,10.4,10.4,10,0.01,CLR,,0.09,WeatherDisplay:10.37,2013-02-09 21:38:00,
2013-02-09 16:43:00,35.1,-16.2,29.97,West,270,8.1,8.1,10,0.01,CLR,,0.09,WeatherDisplay:10.37,2013-02-09 21:43:00,
2013-02-09 16:48:00,34.5,-16.6,29.98,West,270,11.5,11.5,10,0.01,CLR,,0.09,WeatherDisplay:10.37,2013-02-09 21:48:00,
2013-02-09 16:53:00,34.0,-17.0,29.98,NE,45,9.2,9.2,10,0.01,CLR,,0.09,WeatherDisplay:10.37,2013-02-09 21:53:00,
2013-02-09 16:58:00,33.6,-17.3,29.99,NE,45,8.1,8.1,10,0.00,CLR,,0.09,WeatherDisplay:10.37,2013-02-09 21:58:00,
2013-02-09 17:03:00,33.4,-17.5,29.99,NW,315,8.1,8.1,10,0.00,CLR,,0.09,WeatherDisplay:10.37,2013-02-09 22:03:00,
2013-02-09 17:08:00,33.1,-17.7,29.99,North,0,10.4,10.4,10,0.00,CLR,,0.09,WeatherDisplay:10.37,2013-02-09 22:08:00,
2013-02-09 17:13:00,32.7,-18.0,30.00,SW,225,5.8,5.8,10,0.00,CLR,,0.09,WeatherDisplay:10.37,2013-02-09 22:13:00,
2013-02-09 17:19:00,32.5,-18.2,30.00,NE,45,15.0,15.0,10,0.00,CLR,,0.09,WeatherDisplay:10.37,2013-02-09 22:19:00,
2013-02-09 17:24:00,32.2,-18.4,30.01,SW,225,10.4,10.4,10,0.00,CLR,,0.09,WeatherDisplay:10.37,2013-02-09 22:24:00,
2013-02-09 17:29:00,32.0,-18.6,30.01,NNW,338,10.4,10.4,10,0.00,CLR,,0.09,WeatherDisplay:10.37,2013-02-09 22:29:00,
2013-02-09 17:34:00,32.0,-18.6,30.01,NE,45,9.2,9.2,10,0.00,CLR,,0.09,WeatherDisplay:10.37,2013-02-09 22:34:00,
2013-02-09 17:39:00,31.8,-18.7,30.02,West,270,5.8,5.8,10,0.00,CLR,,0.09,WeatherDisplay:10.37,2013-02-09 22:39:00,
2013-02-09 17:44:00,31.8,-18.7,30.02,West,270,10.4,10.4,10,0.00,CLR,,0.09,WeatherDisplay:10.37,2013-02-09 22:44:00,
2013-02-09 17:49:00,31.6,-18.9,30.02,North,0,15.0,15.0,10,0.00,CLR,,0.09,WeatherDisplay:10.37,2013-02-09 22:49:00,
2013-02-09 17:54:00,31.3,-19.1,30.02,NNW,338,3.5,3.8,10,0.00,CLR,,0.09,WeatherDisplay:10.37,2013-02-09 22:54:00,
2013-02-09 17:59:00,30.9,-19.4,30.03,North,0,8.1,8.1,10,0.00,CLR,,0.09,WeatherDisplay:10.37,2013-02-09 22:59:00,
2013-02-09 18:04:00,30.9,-15.9,30.03,NW,315,11.5,11.5,12,0.00,CLR,,0.09,WeatherDisplay:10.37,2013-02-09 23:04:00,
2013-02-09 18:09:00,30.7,-16.0,30.03,SW,225,8.1,8.1,12,0.00,CLR,,0.09,WeatherDisplay:10.37,2013-02-09 23:09:00,
2013-02-09 18:14:00,30.7,-17.7,30.03,NW,315,3.5,3.5,11,0.00,CLR,,0.09,WeatherDisplay:10.37,2013-02-09 23:14:00,
2013-02-09 18:19:00,30.7,-19.6,30.04,NNE,22,8.1,8.1,10,0.00,CLR,,0.09,WeatherDisplay:10.37,2013-02-09 23:19:00,
2013-02-09 18:24:00,30.6,-16.2,30.04,SW,225,4.6,4.6,12,0.00,CLR,,0.09,WeatherDisplay:10.37,2013-02-09 23:24:00,
2013-02-09 18:29:00,30.4,-14.7,30.04,SE,135,3.5,3.5,13,0.00,CLR,,0.09,WeatherDisplay:10.37,2013-02-09 23:29:00,
2013-02-09 18:34:00,30.2,-18.1,30.05,West,270,8.1,8.1,11,0.00,CLR,,0.09,WeatherDisplay:10.37,2013-02-09 23:34:00,
2013-02-09 18:39:00,30.2,-18.1,30.05,North,0,8.1,8.1,11,0.00,CLR,,0.09,WeatherDisplay:10.37,2013-02-09 23:39:00,
2013-02-09 18:44:00,30.0,-18.3,30.06,West,270,11.5,11.5,11,0.00,CLR,,0.09,WeatherDisplay:10.37,2013-02-09 23:44:00,
2013-02-09 18:49:00,29.8,-20.3,30.06,South,180,8.1,8.1,10,0.00,CLR,,0.09,WeatherDisplay:10.37,2013-02-09 23:49:00,
2013-02-09 18:54:00,29.8,-20.3,30.06,West,270,8.1,8.1,10,0.00,CLR,,0.09,WeatherDisplay:10.37,2013-02-09 23:54:00,
2013-02-09 18:59:00,29.7,-20.4,30.06,NW,315,4.6,4.6,10,0.00,CLR,,0.09,WeatherDisplay:10.37,2013-02-09 23:59:00,
2013-02-09 19:04:00,29.7,-20.4,30.06,West,270,8.1,8.1,10,0.00,CLR,,0.09,WeatherDisplay:10.37,2013-02-10 00:04:00,
2013-02-09 19:09:00,29.5,-18.7,30.06,South,180,6.0,6.0,11,0.00,CLR,,0.09,WeatherDisplay:10.37,2013-02-10 00:09:00,
2013-02-09 19:14:00,29.1,-15.7,30.06,SW,225,4.6,4.6,13,0.00,CLR,,0.09,WeatherDisplay:10.37,2013-02-10 00:14:00,
2013-02-09 19:19:00,28.9,-17.4,30.07,West,270,10.4,10.4,12,0.00,CLR,,0.09,WeatherDisplay:10.37,2013-02-10 00:19:00,
2013-02-09 19:24:00,28.8,-19.3,30.07,North,0,5.8,5.8,11,0.00,CLR,,0.09,WeatherDisplay:10.37,2013-02-10 00:24:00,
2013-02-09 19:29:00,28.8,-19.3,30.08,NE,45,5.8,5.8,11,0.00,CLR,,0.09,WeatherDisplay:10.37,2013-02-10 00:29:00,
2013-02-09 19:34:00,28.6,-17.7,30.07,West,270,4.6,4.6,12,0.00,CLR,,0.09,WeatherDisplay:10.37,2013-02-10 00:34:00,
2013-02-09 19:39:00,28.4,-21.4,30.08,West,270,8.1,8.1,10,0.00,CLR,,0.09,WeatherDisplay:10.37,2013-02-10 00:39:00,
2013-02-09 19:44:00,28.4,-21.4,30.08,NW,315,5.8,5.8,10,0.00,CLR,,0.09,WeatherDisplay:10.37,2013-02-10 00:44:00,
2013-02-09 19:49:00,28.4,-21.4,30.08,SW,225,12.7,12.7,10,0.00,CLR,,0.09,WeatherDisplay:10.37,2013-02-10 00:49:00,
2013-02-09 19:54:00,28.2,-19.7,30.09,North,0,5.8,5.8,11,0.00,CLR,,0.09,WeatherDisplay:10.37,2013-02-10 00:54:00,
2013-02-09 19:59:00,27.9,-18.3,30.10,WNW,292,3.5,3.5,12,0.00,CLR,,0.09,WeatherDisplay:10.37,2013-02-10 00:59:00,
2013-02-09 20:04:00,27.9,-16.7,30.10,SW,225,3.5,3.5,13,0.00,CLR,,0.09,WeatherDisplay:10.37,2013-02-10 01:04:00,
2013-02-09 20:09:00,27.7,-15.4,30.10,SW,225,11.5,11.5,14,0.00,CLR,,0.09,WeatherDisplay:10.37,2013-02-10 01:09:00,
2013-02-09 20:14:00,27.7,-15.4,30.11,NW,315,8.1,8.1,14,0.00,CLR,,0.09,WeatherDisplay:10.37,2013-02-10 01:14:00,
2013-02-09 20:19:00,27.5,-15.6,30.11,East,90,5.8,5.8,14,0.00,CLR,,0.09,WeatherDisplay:10.37,2013-02-10 01:19:00,
2013-02-09 20:24:00,27.3,-17.2,30.11,NW,315,5.8,5.8,13,0.00,CLR,,0.09,WeatherDisplay:10.37,2013-02-10 01:24:00,
2013-02-09 20:29:00,27.3,-17.2,30.11,WNW,292,6.9,6.9,13,0.00,CLR,,0.09,WeatherDisplay:10.37,2013-02-10 01:29:00,
2013-02-09 20:34:00,27.1,-15.9,30.12,WNW,292,6.9,6.9,14,0.00,CLR,,0.09,WeatherDisplay:10.37,2013-02-10 01:34:00,
2013-02-09 20:39:00,27.1,-17.3,30.12,South,180,10.4,10.4,13,0.00,CLR,,0.09,WeatherDisplay:10.37,2013-02-10 01:39:00,
2013-02-09 20:44:00,27.0,-16.0,30.13,North,0,3.5,3.5,14,0.00,CLR,,0.09,WeatherDisplay:10.37,2013-02-10 01:44:00,
2013-02-09 20:49:00,26.8,-16.2,30.14,North,0,6.0,6.0,14,0.00,CLR,,0.09,WeatherDisplay:10.37,2013-02-10 01:49:00,
2013-02-09 20:54:00,26.6,-14.9,30.14,NW,315,4.6,4.6,15,0.00,CLR,,0.09,WeatherDisplay:10.37,2013-02-10 01:54:00,
2013-02-09 20:59:00,26.6,-16.3,30.14,West,270,5.8,5.8,14,0.00,CLR,,0.09,WeatherDisplay:10.37,2013-02-10 01:59:00,
2013-02-09 21:05:00,26.4,-15.1,30.13,SW,225,7.6,7.6,15,0.00,CLR,,0.09,WeatherDisplay:10.37,2013-02-10 02:05:00,
2013-02-09 21:10:00,26.4,-13.8,30.14,NW,315,4.6,4.6,16,0.00,CLR,,0.09,WeatherDisplay:10.37,2013-02-10 02:10:00,
2013-02-09 21:15:00,26.4,-15.1,30.15,SW,225,6.9,6.9,15,0.00,CLR,,0.09,WeatherDisplay:10.37,2013-02-10 02:15:00,
2013-02-09 21:20:00,26.1,-14.1,30.15,NW,315,8.1,8.1,16,0.00,CLR,,0.09,WeatherDisplay:10.37,2013-02-10 02:20:00,
2013-02-09 21:25:00,25.9,-14.3,30.15,SW,225,5.8,5.8,16,0.00,CLR,,0.09,WeatherDisplay:10.37,2013-02-10 02:25:00,
2013-02-09 21:30:00,25.9,-16.9,30.16,NW,315,5.8,5.8,14,0.00,CLR,,0.09,WeatherDisplay:10.37,2013-02-10 02:30:00,
2013-02-09 21:35:00,25.7,-15.7,30.16,NW,315,3.5,3.5,15,0.00,CLR,,0.09,WeatherDisplay:10.37,2013-02-10 02:35:00,
2013-02-09 21:40:00,25.7,-17.0,30.16,NNW,329,3.0,9.0,14,0.00,CLR,,0.09,WeatherDisplay:10.37,2013-02-10 02:40:00,
2013-02-09 21:45:00,25.5,-17.2,30.17,West,270,5.8,0.0,14,0.00,CLR,,0.09,WeatherDisplay:10.37,2013-02-10 02:45:00,
2013-02-09 21:50:00,25.3,-16.0,30.17,NW,315,3.5,3.5,15,0.00,CLR,,0.09,WeatherDisplay:10.37,2013-02-10 02:50:00,
2013-02-09 21:55:00,25.2,-16.1,30.17,NW,319,1.0,8.0,15,0.00,CLR,,0.09,WeatherDisplay:10.37,2013-02-10 02:55:00,
2013-02-09 22:00:00,25.0,-15.0,30.17,North,0,3.5,3.5,16,0.00,CLR,,0.09,WeatherDisplay:10.37,2013-02-10 03:00:00,
2013-02-09 22:05:00,25.0,-17.6,30.17,NW,304,2.0,9.0,14,0.00,CLR,,0.09,WeatherDisplay:10.37,2013-02-10 03:05:00,
2013-02-09 22:10:00,24.8,-17.8,30.17,WNW,288,2.0,7.0,14,0.00,CLR,,0.09,WeatherDisplay:10.37,2013-02-10 03:10:00,
2013-02-09 22:15:00,24.8,-17.8,30.17,NW,315,5.8,5.8,14,0.00,CLR,,0.09,WeatherDisplay:10.37,2013-02-10 03:15:00,
2013-02-09 22:20:00,24.6,-17.9,30.17,NNW,331,1.0,7.0,14,0.00,CLR,,0.09,WeatherDisplay:10.37,2013-02-10 03:20:00,
2013-02-09 22:25:00,24.4,-18.1,30.17,NW,312,1.0,8.0,14,0.00,CLR,,0.09,WeatherDisplay:10.37,2013-02-10 03:25:00,
2013-02-09 22:30:00,24.1,-17.0,30.17,NW,315,3.5,0.0,15,0.00,CLR,,0.09,WeatherDisplay:10.37,2013-02-10 03:30:00,
2013-02-09 22:35:00,23.9,-17.2,30.18,NW,315,4.6,4.6,15,0.00,CLR,,0.09,WeatherDisplay:10.37,2013-02-10 03:35:00,
2013-02-09 22:40:00,23.7,-16.0,30.18,West,270,3.5,3.5,16,0.00,CLR,,0.09,WeatherDisplay:10.37,2013-02-10 03:40:00,
2013-02-09 22:45:00,23.6,-14.9,30.17,NNW,338,1.0,3.0,17,0.00,CLR,,0.09,WeatherDisplay:10.37,2013-02-10 03:45:00,
2013-02-09 22:50:00,23.7,-16.0,30.18,NW,315,5.8,5.8,16,0.00,CLR,,0.09,WeatherDisplay:10.37,2013-02-10 03:50:00,
2013-02-09 22:55:00,23.7,-14.8,30.18,NW,318,1.0,6.0,17,0.00,CLR,,0.09,WeatherDisplay:10.37,2013-02-10 03:55:00,
2013-02-09 23:00:00,23.5,-15.0,30.18,NW,312,1.0,6.0,17,0.00,CLR,,0.09,WeatherDisplay:10.37,2013-02-10 04:00:00,
2013-02-09 23:05:00,23.4,-14.0,30.18,WNW,283,2.0,11.0,18,0.00,CLR,,0.09,WeatherDisplay:10.37,2013-02-10 04:05:00,
2013-02-09 23:10:00,23.4,-15.1,30.19,WNW,293,2.0,6.0,17,0.00,CLR,,0.09,WeatherDisplay:10.37,2013-02-10 04:10:00,
2013-02-09 23:15:00,23.2,-15.3,30.19,WNW,286,1.0,5.0,17,0.00,CLR,,0.09,WeatherDisplay:10.37,2013-02-10 04:15:00,
2013-02-09 23:20:00,23.0,-14.3,30.19,NW,323,1.0,6.0,18,0.00,CLR,,0.09,WeatherDisplay:10.37,2013-02-10 04:20:00,
2013-02-09 23:25:00,23.0,-15.4,30.19,North,0,4.6,4.6,17,0.00,CLR,,0.09,WeatherDisplay:10.37,2013-02-10 04:25:00,
2013-02-09 23:30:00,23.0,-15.4,30.19,North,0,4.6,4.6,17,0.00,CLR,,0.09,WeatherDisplay:10.37,2013-02-10 04:30:00,
2013-02-09 23:35:00,22.8,-14.4,30.19,North,6,2.0,6.0,18,0.00,CLR,,0.09,WeatherDisplay:10.37,2013-02-10 04:35:00,
2013-02-09 23:40:00,22.6,-14.6,30.19,NW,315,4.6,4.6,18,0.00,CLR,,0.09,WeatherDisplay:10.37,2013-02-10 04:40:00,
2013-02-09 23:45:00,22.6,-14.6,30.19,NW,319,1.0,8.0,18,0.00,CLR,,0.09,WeatherDisplay:10.37,2013-02-10 04:45:00,
2013-02-09 23:50:00,22.6,-14.6,30.19,East,90,4.6,4.6,18,0.00,CLR,,0.09,WeatherDisplay:10.37,2013-02-10 04:50:00,
2013-02-09 23:55:00,22.3,-13.8,30.19,North,0,3.1,0.0,19,0.00,CLR,,0.09,WeatherDisplay:10.37,2013-02-10 04:55:00,